Time;durP1;ratioP1;P1;durP2;ratioP2;P2;SDS_P1;SDS_P2;PMS_P1;PMS_P2;Temp;Humidity;BMP_temperature;BMP_pressure;BME280_temperature;BME280_humidity;BME280_pressure;Samples;Min_cycle;Max_cycle;Signal;HPM_P1;HPM_P2
2021/01/31 00:01:37;;;;;;;1.33;0.90;;;9.00;99.90;;;;;;6227233;23;20591;-90
2021/01/31 00:04:08;;;;;;;2.27;0.80;;;8.90;99.90;;;;;;6230098;23;20200;-91
2021/01/31 00:06:40;;;;;;;1.33;0.90;;;8.90;99.90;;;;;;6231349;23;20177;-90
2021/01/31 00:09:12;;;;;;;1.10;0.80;;;8.90;99.90;;;;;;6230851;23;20168;-90
2021/01/31 00:11:43;;;;;;;0.97;0.90;;;8.90;99.90;;;;;;6223540;23;20199;-88
2021/01/31 00:14:14;;;;;;;2.23;0.93;;;8.90;99.90;;;;;;6219808;23;20172;-91
2021/01/31 00:16:45;;;;;;;1.10;0.90;;;8.90;99.90;;;;;;6219266;23;20235;-91
2021/01/31 00:19:15;;;;;;;1.73;1.00;;;8.80;99.90;;;;;;6229796;23;20222;-91
2021/01/31 00:21:48;;;;;;;1.30;0.93;;;8.80;99.90;;;;;;6227811;23;20165;-90
2021/01/31 00:24:19;;;;;;;0.87;0.80;;;8.70;99.90;;;;;;6228915;23;20203;-90
2021/01/31 00:26:50;;;;;;;3.40;1.20;;;8.70;99.90;;;;;;6231260;23;20271;-90
2021/01/31 00:29:22;;;;;;;4.23;1.10;;;8.70;99.90;;;;;;6235397;23;20169;-90
2021/01/31 00:31:53;;;;;;;2.40;1.33;;;8.50;99.90;;;;;;6231965;23;20198;-90
2021/01/31 00:34:24;;;;;;;2.43;0.90;;;8.60;99.90;;;;;;6238764;23;20176;-90
2021/01/31 00:36:56;;;;;;;2.07;1.70;;;8.50;99.90;;;;;;6232000;23;20467;-89
2021/01/31 00:39:27;;;;;;;3.47;2.10;;;8.50;99.90;;;;;;6231503;23;20230;-89
2021/01/31 00:41:58;;;;;;;3.77;1.80;;;8.50;99.90;;;;;;6230227;23;20207;-90
2021/01/31 00:44:29;;;;;;;2.80;1.47;;;8.40;99.90;;;;;;6231805;23;20169;-90
2021/01/31 00:47:01;;;;;;;2.07;1.53;;;8.40;99.90;;;;;;6231334;23;20172;-90
2021/01/31 00:49:32;;;;;;;2.07;1.70;;;8.40;99.90;;;;;;6232082;23;20169;-89
2021/01/31 00:52:08;;;;;;;2.77;1.63;;;8.40;99.90;;;;;;6237430;23;20203;-91
2021/01/31 00:54:39;;;;;;;2.60;1.80;;;8.30;99.90;;;;;;6233345;23;20211;-90
2021/01/31 00:57:10;;;;;;;2.03;1.10;;;8.30;99.90;;;;;;6232857;23;20207;-90
2021/01/31 00:59:41;;;;;;;3.80;1.10;;;8.20;99.90;;;;;;6231473;23;20228;-89
2021/01/31 01:02:16;;;;;;;0.97;0.90;;;8.20;99.90;;;;;;6230852;23;20180;-90
2021/01/31 01:04:48;;;;;;;1.13;1.00;;;8.20;99.90;;;;;;6230210;23;20175;-90
2021/01/31 01:07:21;;;;;;;4.60;1.20;;;8.20;99.90;;;;;;6233165;23;20231;-90
2021/01/31 01:09:52;;;;;;;2.47;1.20;;;8.20;99.90;;;;;;6232961;23;20172;-90
2021/01/31 01:12:22;;;;;;;1.57;1.13;;;8.10;99.90;;;;;;6231266;23;20175;-88
2021/01/31 01:14:53;;;;;;;2.47;1.13;;;8.10;99.90;;;;;;6229328;23;20199;-90
2021/01/31 01:17:24;;;;;;;2.83;1.50;;;8.10;99.90;;;;;;6229184;23;20205;-89
2021/01/31 01:19:55;;;;;;;3.70;2.00;;;8.00;99.90;;;;;;6229511;23;20192;-90
2021/01/31 01:22:27;;;;;;;5.13;1.93;;;8.00;99.90;;;;;;6227582;23;20210;-89
2021/01/31 01:25:02;;;;;;;4.37;1.90;;;8.00;99.90;;;;;;6228324;23;20203;-89
2021/01/31 01:27:33;;;;;;;3.60;1.70;;;8.00;99.90;;;;;;6231407;23;20427;-89
2021/01/31 01:30:05;;;;;;;2.93;1.93;;;7.90;99.90;;;;;;6232766;23;20180;-91
2021/01/31 01:32:37;;;;;;;2.93;1.83;;;7.90;99.90;;;;;;6233218;23;20186;-90
2021/01/31 01:35:10;;;;;;;3.50;1.73;;;7.90;99.90;;;;;;6227989;23;20172;-90
2021/01/31 01:37:45;;;;;;;4.00;1.73;;;8.00;99.90;;;;;;6231646;23;20546;-90
2021/01/31 01:40:24;;;;;;;2.17;1.60;;;7.90;99.90;;;;;;6231212;23;20507;-88
2021/01/31 01:42:56;;;;;;;3.37;1.60;;;7.90;99.90;;;;;;6232366;23;20208;-90
2021/01/31 01:45:27;;;;;;;2.60;1.70;;;7.80;99.90;;;;;;6231315;23;20169;-90
2021/01/31 01:48:07;;;;;;;3.83;1.43;;;7.80;99.90;;;;;;6233823;23;20184;-89
2021/01/31 01:50:40;;;;;;;2.10;1.90;;;7.80;99.90;;;;;;6235698;23;20512;-88
2021/01/31 01:53:13;;;;;;;2.17;1.63;;;7.80;99.90;;;;;;6239798;23;20165;-89
2021/01/31 01:55:51;;;;;;;2.63;1.80;;;7.70;99.90;;;;;;6240418;23;20175;-90
2021/01/31 01:58:23;;;;;;;4.97;1.90;;;7.70;99.90;;;;;;6239447;23;20165;-91
2021/01/31 02:00:54;;;;;;;4.27;2.77;;;7.80;99.90;;;;;;6235616;23;20187;-90
2021/01/31 02:03:30;;;;;;;3.57;3.03;;;7.70;99.90;;;;;;6237881;23;20204;-90
2021/01/31 02:06:09;;;;;;;3.93;3.13;;;7.70;99.90;;;;;;6226485;23;20291;-91
2021/01/31 02:08:42;;;;;;;4.50;2.70;;;7.70;99.90;;;;;;6237994;23;20171;-90
2021/01/31 02:11:13;;;;;;;4.07;2.93;;;7.70;99.90;;;;;;6238305;23;20172;-91
2021/01/31 02:13:47;;;;;;;2.73;2.40;;;7.70;99.90;;;;;;6235115;23;20195;-92
2021/01/31 02:16:26;;;;;;;3.73;2.63;;;7.70;99.90;;;;;;6233706;23;20180;-91
2021/01/31 02:19:13;;;;;;;3.27;2.67;;;7.70;99.90;;;;;;6235807;23;20167;-90
2021/01/31 02:22:25;;;;;;;6.23;3.67;;;7.70;99.90;;;;;;6235865;23;20232;-90
2021/01/31 02:25:35;;;;;;;6.13;3.63;;;7.70;99.90;;;;;;6201981;23;20192;-90
2021/01/31 02:28:35;;;;;;;5.90;3.87;;;7.70;99.90;;;;;;6191633;23;20219;-90
2021/01/31 02:31:26;;;;;;;4.47;3.47;;;7.70;99.90;;;;;;6219253;23;20177;-90
2021/01/31 02:34:03;;;;;;;4.43;3.37;;;7.70;99.90;;;;;;6234445;23;20220;-91
2021/01/31 02:36:44;;;;;;;3.73;2.90;;;7.60;99.90;;;;;;6234280;23;20164;-91
2021/01/31 02:42:02;;;;;;;2.70;1.90;;;7.60;99.90;;;;;;6230140;23;20203;-90
2021/01/31 02:44:37;;;;;;;3.00;2.07;;;7.60;99.90;;;;;;6234431;23;20261;-90
2021/01/31 02:47:16;;;;;;;2.83;1.90;;;7.60;99.90;;;;;;6225703;23;21043;-88
2021/01/31 02:52:27;;;;;;;2.40;1.90;;;7.60;99.90;;;;;;6227743;23;20207;-89
2021/01/31 02:55:04;;;;;;;3.53;2.00;;;7.60;99.90;;;;;;6228149;23;20202;-90
2021/01/31 02:57:38;;;;;;;4.13;2.30;;;7.60;99.90;;;;;;6231617;23;20166;-89
2021/01/31 03:00:13;;;;;;;2.90;2.00;;;7.60;99.90;;;;;;6227750;23;20175;-89
2021/01/31 03:02:57;;;;;;;3.43;2.27;;;7.60;99.90;;;;;;6228289;23;20242;-88
2021/01/31 03:05:31;;;;;;;1.90;1.57;;;7.50;99.90;;;;;;6228262;23;20169;-90
2021/01/31 03:08:09;;;;;;;2.20;2.00;;;7.50;99.90;;;;;;6227903;23;20171;-89
2021/01/31 03:10:47;;;;;;;2.50;1.90;;;7.50;99.90;;;;;;6228111;23;20193;-89
2021/01/31 03:13:25;;;;;;;4.57;1.77;;;7.50;99.90;;;;;;6230628;23;20171;-89
2021/01/31 03:16:06;;;;;;;2.87;2.03;;;7.50;99.90;;;;;;6230953;23;20186;-91
2021/01/31 03:18:41;;;;;;;3.33;2.63;;;7.60;99.90;;;;;;6236146;23;20396;-91
2021/01/31 03:21:17;;;;;;;3.57;2.83;;;7.60;99.90;;;;;;6233871;23;20479;-90
2021/01/31 03:24:01;;;;;;;5.10;3.47;;;7.50;99.90;;;;;;6234400;23;20200;-90
2021/01/31 03:26:42;;;;;;;4.60;3.50;;;7.50;99.90;;;;;;6231348;23;20225;-90
2021/01/31 03:29:14;;;;;;;6.80;3.87;;;7.50;99.90;;;;;;6233711;23;20196;-90
2021/01/31 03:31:54;;;;;;;3.27;2.10;;;7.50;99.90;;;;;;6235007;23;20188;-89
2021/01/31 03:34:34;;;;;;;2.50;2.00;;;7.50;99.90;;;;;;6236095;23;20176;-90
2021/01/31 03:37:07;;;;;;;2.10;1.90;;;7.50;99.90;;;;;;6235898;23;20154;-90
2021/01/31 03:39:43;;;;;;;1.60;1.30;;;7.50;99.90;;;;;;6235683;23;20176;-90
2021/01/31 03:42:21;;;;;;;3.27;1.53;;;7.50;99.90;;;;;;6233563;23;20191;-90
2021/01/31 03:44:55;;;;;;;3.60;2.10;;;7.50;99.90;;;;;;6232332;23;20189;-89
2021/01/31 03:47:34;;;;;;;4.10;2.60;;;7.40;99.90;;;;;;6229397;23;20172;-89
2021/01/31 03:50:07;;;;;;;4.67;2.20;;;7.40;99.90;;;;;;6227679;23;20204;-89
2021/01/31 03:52:38;;;;;;;5.57;2.70;;;7.40;99.90;;;;;;6227503;23;20160;-89
2021/01/31 03:55:12;;;;;;;2.37;1.60;;;7.40;99.90;;;;;;6231189;23;20188;-90
2021/01/31 03:57:48;;;;;;;2.40;2.20;;;7.40;99.90;;;;;;6233368;23;20165;-90
2021/01/31 04:00:25;;;;;;;5.37;3.07;;;7.40;99.90;;;;;;6234346;23;20190;-88
2021/01/31 04:02:58;;;;;;;4.23;2.20;;;7.40;99.90;;;;;;6234627;23;20254;-89
2021/01/31 04:05:33;;;;;;;3.07;1.50;;;7.40;99.90;;;;;;6237307;23;20176;-89
2021/01/31 04:08:10;;;;;;;2.20;1.80;;;7.40;99.90;;;;;;6230294;23;20169;-88
2021/01/31 04:10:47;;;;;;;2.90;1.87;;;7.40;99.90;;;;;;6233779;23;20172;-90
2021/01/31 04:13:20;;;;;;;5.20;2.23;;;7.30;99.90;;;;;;6241196;23;20164;-89
2021/01/31 04:15:54;;;;;;;2.10;1.90;;;7.30;99.90;;;;;;6242931;23;20197;-89
2021/01/31 04:18:26;;;;;;;3.33;2.00;;;7.30;99.90;;;;;;6242234;23;20159;-90
2021/01/31 04:20:57;;;;;;;2.87;1.90;;;7.30;99.90;;;;;;6233015;23;20212;-90
2021/01/31 04:23:28;;;;;;;4.93;2.77;;;7.20;99.90;;;;;;6226349;23;20257;-91
2021/01/31 04:26:01;;;;;;;4.00;2.63;;;7.30;99.90;;;;;;6220729;23;20511;-90
2021/01/31 04:28:32;;;;;;;3.00;2.70;;;7.30;99.90;;;;;;6219929;23;20187;-90
2021/01/31 04:31:03;;;;;;;3.37;2.50;;;7.30;99.90;;;;;;6226232;23;20168;-91
2021/01/31 04:33:34;;;;;;;3.50;2.47;;;7.30;99.90;;;;;;6231369;23;20178;-90
2021/01/31 04:36:06;;;;;;;2.90;2.20;;;7.40;99.90;;;;;;6224866;23;20176;-89
2021/01/31 04:38:36;;;;;;;3.60;2.80;;;7.30;99.90;;;;;;6229718;23;20171;-90
2021/01/31 04:41:10;;;;;;;3.23;2.77;;;7.30;99.90;;;;;;6231550;23;20180;-89
2021/01/31 04:43:41;;;;;;;3.00;2.60;;;7.30;99.90;;;;;;6236127;23;20207;-89
2021/01/31 04:46:19;;;;;;;3.63;3.30;;;7.30;99.90;;;;;;6230071;23;20198;-89
2021/01/31 04:49:04;;;;;;;3.63;2.97;;;7.40;99.90;;;;;;6227951;23;20500;-88
2021/01/31 04:51:49;;;;;;;4.53;4.13;;;7.40;99.90;;;;;;6224961;23;20172;-89
2021/01/31 04:54:36;;;;;;;4.87;3.30;;;7.40;99.90;;;;;;6230606;23;20174;-89
2021/01/31 04:57:15;;;;;;;5.70;3.37;;;7.40;99.90;;;;;;6235412;23;20172;-89
2021/01/31 04:59:57;;;;;;;5.90;3.97;;;7.40;99.90;;;;;;6235014;23;20179;-89
2021/01/31 05:02:32;;;;;;;6.10;4.93;;;7.40;99.90;;;;;;6235953;23;20178;-89
2021/01/31 05:05:32;;;;;;;9.63;5.20;;;7.40;99.90;;;;;;6235571;23;20194;-90
2021/01/31 05:08:08;;;;;;;5.97;4.60;;;7.30;99.90;;;;;;6232377;23;20210;-89
2021/01/31 05:10:40;;;;;;;7.30;5.67;;;7.30;99.90;;;;;;6232655;23;20179;-88
2021/01/31 05:13:29;;;;;;;8.93;5.80;;;7.30;99.90;;;;;;6232819;23;20259;-89
2021/01/31 05:16:06;;;;;;;7.30;5.60;;;7.30;99.90;;;;;;6233888;23;20219;-90
2021/01/31 05:18:41;;;;;;;6.47;5.03;;;7.30;99.90;;;;;;6235754;23;20556;-89
2021/01/31 05:21:16;;;;;;;6.80;5.33;;;7.30;99.90;;;;;;6232312;23;20186;-89
2021/01/31 05:23:51;;;;;;;7.27;5.27;;;7.30;99.90;;;;;;6233779;23;20200;-90
2021/01/31 05:26:22;;;;;;;7.47;5.07;;;7.30;99.90;;;;;;6232866;23;20182;-90
2021/01/31 05:29:00;;;;;;;6.20;4.67;;;7.30;99.90;;;;;;6225272;23;20169;-90
2021/01/31 05:31:36;;;;;;;7.37;4.67;;;7.30;99.90;;;;;;6220535;23;20176;-90
2021/01/31 05:34:10;;;;;;;7.33;5.20;;;7.30;99.90;;;;;;6218111;23;20624;-89
2021/01/31 05:36:43;;;;;;;5.33;4.10;;;7.30;99.90;;;;;;6217652;23;20236;-89
2021/01/31 05:39:14;;;;;;;9.37;4.30;;;7.40;99.90;;;;;;6219689;23;20469;-90
2021/01/31 05:41:50;;;;;;;5.93;4.17;;;7.30;99.90;;;;;;6217954;23;20241;-90
2021/01/31 05:44:35;;;;;;;6.10;4.00;;;7.30;99.90;;;;;;6218370;23;20207;-94
2021/01/31 05:47:22;;;;;;;6.20;4.13;;;7.30;99.90;;;;;;6218636;23;20206;-91
2021/01/31 05:49:54;;;;;;;6.53;3.47;;;7.30;99.90;;;;;;6218739;23;20549;-93
2021/01/31 05:52:46;;;;;;;4.23;3.00;;;7.30;99.90;;;;;;6218269;23;20798;-94
2021/01/31 05:55:32;;;;;;;3.67;2.47;;;7.20;99.90;;;;;;6188257;23;20192;-93
2021/01/31 05:58:17;;;;;;;5.17;3.00;;;7.20;99.90;;;;;;6219682;23;20175;-94
2021/01/31 06:01:04;;;;;;;4.70;2.90;;;7.20;99.90;;;;;;6217442;23;20179;-93
2021/01/31 06:03:35;;;;;;;6.17;4.00;;;7.20;99.90;;;;;;6218947;23;20201;-93
2021/01/31 06:06:13;;;;;;;5.03;4.00;;;7.20;99.90;;;;;;6228442;23;20183;-93
2021/01/31 06:11:28;;;;;;;7.47;4.43;;;7.10;99.90;;;;;;6142064;23;20198;-95
2021/01/31 06:14:07;;;;;;;8.07;6.33;;;7.10;99.90;;;;;;6144991;23;20256;-93
2021/01/31 06:16:41;;;;;;;14.63;10.90;;;7.00;99.90;;;;;;6135316;23;20603;-94
2021/01/31 06:22:09;;;;;;;10.27;7.27;;;7.00;99.90;;;;;;6213738;23;20226;-93
2021/01/31 06:24:48;;;;;;;7.53;6.27;;;6.90;99.90;;;;;;6219482;23;20203;-90
2021/01/31 06:27:31;;;;;;;7.67;5.63;;;6.90;99.90;;;;;;6218935;23;20184;-89
2021/01/31 06:30:20;;;;;;;7.23;4.90;;;6.90;99.90;;;;;;6219595;23;20164;-90
2021/01/31 06:32:54;;;;;;;6.67;5.40;;;6.90;99.90;;;;;;6229062;23;20165;-90
2021/01/31 06:35:27;;;;;;;5.53;4.80;;;6.90;99.90;;;;;;6241242;23;20195;-90
2021/01/31 06:38:18;;;;;;;6.73;4.50;;;6.90;99.90;;;;;;6240260;23;20190;-89
2021/01/31 06:41:03;;;;;;;7.40;5.60;;;6.90;99.90;;;;;;6223692;23;20562;-90
2021/01/31 06:43:46;;;;;;;5.60;3.97;;;6.90;99.90;;;;;;6220222;23;20265;-89
2021/01/31 06:46:26;;;;;;;4.77;3.30;;;6.90;99.90;;;;;;6217081;23;20176;-89
2021/01/31 06:49:10;;;;;;;3.97;3.17;;;6.90;99.90;;;;;;6217355;23;20249;-89
2021/01/31 06:51:58;;;;;;;4.47;3.23;;;6.90;99.90;;;;;;6216379;23;20191;-89
2021/01/31 06:54:51;;;;;;;5.27;3.73;;;6.90;99.90;;;;;;6217853;23;20671;-89
2021/01/31 06:57:45;;;;;;;4.77;3.30;;;6.90;99.90;;;;;;6221781;23;20563;-89
2021/01/31 07:00:48;;;;;;;6.30;4.70;;;6.80;99.90;;;;;;6150337;23;20180;-88
2021/01/31 07:04:06;;;;;;;7.13;4.43;;;6.80;99.90;;;;;;6209964;23;20538;-89
2021/01/31 07:09:38;;;;;;;7.90;5.17;;;6.80;99.90;;;;;;6218578;23;20708;-88
2021/01/31 07:12:16;;;;;;;6.47;5.10;;;6.80;99.90;;;;;;6217270;23;20201;-87
2021/01/31 07:14:56;;;;;;;7.50;4.97;;;6.80;99.90;;;;;;6218025;23;20176;-88
2021/01/31 07:17:34;;;;;;;7.07;5.07;;;6.80;99.90;;;;;;6217831;23;20183;-90
2021/01/31 07:20:12;;;;;;;5.27;3.83;;;6.80;99.90;;;;;;6217073;23;20182;-90
2021/01/31 07:22:47;;;;;;;5.77;3.57;;;6.80;99.90;;;;;;6218035;23;20175;-87
2021/01/31 07:25:25;;;;;;;5.27;3.87;;;6.70;99.90;;;;;;6218099;23;20487;-89
2021/01/31 07:27:59;;;;;;;4.80;3.97;;;6.70;99.90;;;;;;6217950;23;20506;-89
2021/01/31 07:30:36;;;;;;;5.83;4.17;;;6.70;99.90;;;;;;6216715;23;20371;-89
2021/01/31 07:33:16;;;;;;;5.17;3.87;;;6.70;99.90;;;;;;6217640;23;20615;-89
2021/01/31 07:35:58;;;;;;;4.80;3.83;;;6.70;99.90;;;;;;6218020;23;20184;-89
2021/01/31 07:38:34;;;;;;;4.17;3.77;;;6.70;99.90;;;;;;6219135;23;20165;-89
2021/01/31 07:41:08;;;;;;;4.03;3.33;;;6.70;99.90;;;;;;6216515;23;20561;-90
2021/01/31 07:43:39;;;;;;;7.70;4.00;;;6.70;99.90;;;;;;6224201;23;20223;-89
2021/01/31 07:46:13;;;;;;;6.07;3.50;;;6.70;99.90;;;;;;6233309;23;20227;-89
2021/01/31 07:48:59;;;;;;;4.77;3.13;;;6.70;99.90;;;;;;6226104;23;20197;-89
2021/01/31 07:51:59;;;;;;;3.30;3.00;;;6.70;99.90;;;;;;6218837;23;20180;-89
2021/01/31 07:54:33;;;;;;;3.50;2.43;;;6.80;99.90;;;;;;6217261;23;20188;-89
2021/01/31 07:57:34;;;;;;;3.93;3.27;;;6.70;99.90;;;;;;6228623;23;20171;-89
2021/01/31 08:00:14;;;;;;;5.07;2.80;;;6.70;99.90;;;;;;6220157;23;20218;-87
2021/01/31 08:02:48;;;;;;;4.07;3.27;;;6.70;99.90;;;;;;6219197;23;20183;-88
2021/01/31 08:05:53;;;;;;;5.37;3.70;;;6.70;99.90;;;;;;6218034;23;20204;-89
2021/01/31 08:08:55;;;;;;;4.80;4.30;;;6.60;99.90;;;;;;6218167;23;20248;-88
2021/01/31 08:11:57;;;;;;;5.30;4.40;;;6.60;99.90;;;;;;6216195;23;20202;-89
2021/01/31 08:15:09;;;;;;;5.63;4.57;;;6.60;99.90;;;;;;6220585;23;20163;-87
2021/01/31 08:18:04;;;;;;;7.03;5.30;;;6.70;99.90;;;;;;6218989;23;20172;-89
2021/01/31 08:20:48;;;;;;;5.00;4.07;;;6.60;99.90;;;;;;6182583;23;20598;-90
2021/01/31 08:23:49;;;;;;;5.00;4.00;;;6.60;99.90;;;;;;6216363;23;20181;-89
2021/01/31 08:26:56;;;;;;;8.57;3.30;;;6.60;99.90;;;;;;6130504;23;20180;-88
2021/01/31 08:29:36;;;;;;;4.40;3.60;;;6.60;99.90;;;;;;6220496;23;20165;-89
2021/01/31 08:32:22;;;;;;;4.37;3.80;;;6.60;99.90;;;;;;6218435;23;20212;-89
2021/01/31 08:35:24;;;;;;;5.23;3.50;;;6.60;99.90;;;;;;6229097;23;20171;-90
2021/01/31 08:38:14;;;;;;;6.40;4.57;;;6.60;99.90;;;;;;6230003;23;20168;-89
2021/01/31 08:41:33;;;;;;;7.37;5.23;;;6.50;99.90;;;;;;6229164;23;20180;-89
2021/01/31 08:44:40;;;;;;;6.23;5.43;;;6.50;99.90;;;;;;6228914;23;20200;-89
2021/01/31 08:47:21;;;;;;;7.87;5.47;;;6.50;99.90;;;;;;6233675;23;20191;-88
2021/01/31 08:53:02;;;;;;;4.57;3.60;;;6.40;99.90;;;;;;6151995;23;20165;-88
2021/01/31 08:58:26;;;;;;;7.83;3.77;;;6.40;99.90;;;;;;6133317;23;20167;-88
2021/01/31 09:00:59;;;;;;;5.00;3.07;;;6.30;99.90;;;;;;6132039;23;20171;-88
2021/01/31 09:03:33;;;;;;;3.93;3.53;;;6.30;99.90;;;;;;6130766;23;20194;-89
2021/01/31 09:06:05;;;;;;;4.33;3.83;;;6.30;99.90;;;;;;6130479;23;20260;-89
2021/01/31 09:08:36;;;;;;;3.97;3.30;;;6.30;99.90;;;;;;6135282;23;20183;-88
2021/01/31 09:11:08;;;;;;;3.70;2.60;;;6.30;99.90;;;;;;6132905;23;20190;-88
2021/01/31 09:13:39;;;;;;;3.67;3.00;;;6.30;99.90;;;;;;6132601;23;20201;-89
2021/01/31 09:16:14;;;;;;;3.93;3.27;;;6.30;99.90;;;;;;6129160;23;20186;-90
2021/01/31 09:19:09;;;;;;;3.33;2.47;;;6.30;99.90;;;;;;6129956;23;20218;-90
2021/01/31 09:21:41;;;;;;;3.77;2.87;;;6.30;99.90;;;;;;6127531;23;20226;-89
2021/01/31 09:24:15;;;;;;;6.17;2.43;;;6.20;99.90;;;;;;6129789;23;20204;-87
2021/01/31 09:26:51;;;;;;;2.73;2.10;;;6.20;99.90;;;;;;6130120;23;20186;-88
2021/01/31 09:29:26;;;;;;;1.90;1.43;;;6.20;99.90;;;;;;6127753;23;20169;-89
2021/01/31 09:32:20;;;;;;;6.17;4.43;;;6.10;99.90;;;;;;6128833;23;20205;-89
2021/01/31 09:34:55;;;;;;;4.33;2.90;;;6.00;99.90;;;;;;6130480;23;20163;-89
2021/01/31 09:37:29;;;;;;;3.50;2.63;;;6.00;99.90;;;;;;6130510;23;20208;-89
2021/01/31 09:40:02;;;;;;;3.43;2.00;;;6.00;99.90;;;;;;6130218;23;20276;-92
2021/01/31 09:42:34;;;;;;;1.97;1.53;;;6.10;99.90;;;;;;6129888;23;20221;-89
2021/01/31 09:45:08;;;;;;;1.20;1.07;;;6.10;99.90;;;;;;6133069;23;20310;-89
2021/01/31 09:47:39;;;;;;;1.70;1.43;;;6.20;99.90;;;;;;6134870;23;20186;-89
2021/01/31 09:50:14;;;;;;;1.57;1.47;;;6.30;99.90;;;;;;6128530;23;20185;-89
2021/01/31 09:52:47;;;;;;;2.10;1.70;;;6.30;99.90;;;;;;6130436;23;20178;-88
2021/01/31 09:55:39;;;;;;;2.13;1.20;;;6.40;99.90;;;;;;6129148;23;20203;-88
2021/01/31 09:58:21;;;;;;;1.43;1.10;;;6.60;99.90;;;;;;6128799;23;20877;-88
2021/01/31 10:00:53;;;;;;;1.43;0.97;;;6.90;99.90;;;;;;6128302;23;20178;-87
2021/01/31 10:03:31;;;;;;;0.73;0.67;;;7.10;99.90;;;;;;6132654;23;20182;-87
2021/01/31 10:06:10;;;;;;;0.67;0.57;;;7.50;99.90;;;;;;6127637;23;20178;-88
2021/01/31 10:08:50;;;;;;;1.00;0.70;;;7.70;99.90;;;;;;6132412;23;20188;-88
2021/01/31 10:11:44;;;;;;;0.60;0.50;;;7.80;99.90;;;;;;6130922;23;20166;-89
2021/01/31 10:14:36;;;;;;;1.53;0.47;;;7.90;99.90;;;;;;6131082;23;20212;-88
2021/01/31 10:17:14;;;;;;;0.30;0.23;;;7.90;99.90;;;;;;6133532;23;20617;-89
2021/01/31 10:19:46;;;;;;;0.40;0.40;;;8.30;99.90;;;;;;6136097;23;20255;-88
2021/01/31 10:22:31;;;;;;;0.93;0.20;;;8.60;99.90;;;;;;6134923;23;20178;-89
2021/01/31 10:25:02;;;;;;;1.43;0.50;;;8.60;99.90;;;;;;6130060;23;20201;-89
2021/01/31 10:27:34;;;;;;;0.40;0.40;;;8.50;99.90;;;;;;6129906;23;20631;-90
2021/01/31 10:30:22;;;;;;;0.40;0.40;;;8.50;99.90;;;;;;6130375;23;20245;-89
2021/01/31 10:32:53;;;;;;;0.90;0.50;;;8.40;99.90;;;;;;6145348;23;20174;-89
2021/01/31 10:35:31;;;;;;;0.33;0.33;;;8.30;99.90;;;;;;6149289;23;20185;-89
2021/01/31 10:38:29;;;;;;;0.50;0.47;;;8.20;99.90;;;;;;6144658;23;20174;-89
2021/01/31 10:41:01;;;;;;;0.60;0.50;;;8.10;99.90;;;;;;6148309;23;20162;-88
2021/01/31 10:43:32;;;;;;;1.27;0.40;;;8.00;99.90;;;;;;6146440;23;20168;-88
2021/01/31 10:46:03;;;;;;;0.67;0.43;;;7.90;99.90;;;;;;6124551;23;20177;-88
2021/01/31 10:48:34;;;;;;;0.63;0.60;;;7.90;99.90;;;;;;6149199;23;20159;-87
2021/01/31 10:51:06;;;;;;;1.90;0.53;;;7.90;99.90;;;;;;6137917;23;20214;-88
2021/01/31 10:53:39;;;;;;;0.60;0.53;;;8.00;99.90;;;;;;6107855;23;20203;-88
2021/01/31 10:56:09;;;;;;;1.13;0.83;;;8.10;99.90;;;;;;6111804;23;20177;-87
2021/01/31 10:58:40;;;;;;;0.50;0.50;;;8.00;99.90;;;;;;6118293;23;20202;-88
2021/01/31 11:01:12;;;;;;;3.07;0.53;;;7.90;99.90;;;;;;6119868;23;20173;-88
2021/01/31 11:03:42;;;;;;;2.33;0.70;;;7.90;99.90;;;;;;6120234;23;20215;-88
2021/01/31 11:06:14;;;;;;;1.23;0.67;;;7.80;99.90;;;;;;6121413;23;20237;-88
2021/01/31 11:08:47;;;;;;;1.60;0.80;;;7.80;99.90;;;;;;6117539;23;20171;-88
2021/01/31 11:11:19;;;;;;;1.33;0.70;;;7.80;99.90;;;;;;6119470;23;20162;-89
2021/01/31 11:13:50;;;;;;;0.57;0.57;;;7.80;99.90;;;;;;6117342;23;20220;-89
2021/01/31 11:16:21;;;;;;;0.73;0.50;;;7.80;99.90;;;;;;6107613;23;20214;-89
2021/01/31 11:18:51;;;;;;;0.70;0.70;;;7.80;99.90;;;;;;6100726;23;20181;-88
2021/01/31 11:21:24;;;;;;;0.80;0.77;;;7.70;99.90;;;;;;6099214;23;20240;-89
2021/01/31 11:23:57;;;;;;;0.60;0.47;;;7.70;99.90;;;;;;6099401;23;20238;-88
2021/01/31 11:26:28;;;;;;;0.70;0.57;;;7.70;99.90;;;;;;6099774;23;20174;-89
2021/01/31 11:28:59;;;;;;;1.33;0.90;;;7.60;99.90;;;;;;6099836;23;20174;-89
2021/01/31 11:31:30;;;;;;;0.93;0.60;;;7.70;99.90;;;;;;6098914;23;20182;-89
2021/01/31 11:34:01;;;;;;;0.50;0.50;;;7.70;99.90;;;;;;6099384;23;20186;-89
2021/01/31 11:36:32;;;;;;;0.60;0.30;;;7.70;99.90;;;;;;6100202;23;20172;-88
2021/01/31 11:39:08;;;;;;;0.67;0.50;;;7.60;99.90;;;;;;6074831;23;20172;-89
2021/01/31 11:41:40;;;;;;;1.07;0.50;;;7.60;99.90;;;;;;6075232;23;20212;-88
2021/01/31 11:44:11;;;;;;;0.60;0.47;;;7.60;99.90;;;;;;6100293;23;20195;-89
2021/01/31 11:46:43;;;;;;;0.40;0.40;;;7.50;99.90;;;;;;6105466;23;20178;-88
2021/01/31 11:49:13;;;;;;;0.80;0.50;;;7.50;99.90;;;;;;6104628;23;20469;-87
2021/01/31 11:51:44;;;;;;;0.57;0.50;;;7.50;99.90;;;;;;6098272;23;20515;-87
2021/01/31 11:54:17;;;;;;;0.80;0.50;;;7.40;99.90;;;;;;6099449;23;20210;-88
2021/01/31 11:56:47;;;;;;;0.33;0.33;;;7.40;99.90;;;;;;6100213;23;20168;-88
2021/01/31 11:59:20;;;;;;;0.77;0.40;;;7.40;99.90;;;;;;6112508;23;20220;-88
2021/01/31 12:01:50;;;;;;;0.53;0.40;;;7.50;99.90;;;;;;6127788;23;20175;-89
2021/01/31 12:04:21;;;;;;;0.60;0.40;;;7.50;99.90;;;;;;6128966;23;20197;-88
2021/01/31 12:06:52;;;;;;;0.53;0.40;;;7.50;99.90;;;;;;6128260;23;20182;-89
2021/01/31 12:09:25;;;;;;;0.43;0.33;;;7.50;99.90;;;;;;6128985;23;20250;-88
2021/01/31 12:11:57;;;;;;;0.57;0.40;;;7.50;99.90;;;;;;6127426;23;20523;-88
2021/01/31 12:14:28;;;;;;;0.40;0.40;;;7.50;99.90;;;;;;6128145;23;20454;-90
2021/01/31 12:17:00;;;;;;;0.40;0.30;;;7.60;99.90;;;;;;6129448;23;20485;-89
2021/01/31 12:19:31;;;;;;;1.60;0.47;;;7.60;99.90;;;;;;6128952;23;20677;-89
2021/01/31 12:22:01;;;;;;;0.40;0.40;;;7.60;99.90;;;;;;6127829;23;20183;-89
2021/01/31 12:24:34;;;;;;;1.13;0.47;;;7.50;99.90;;;;;;6129578;23;20201;-89
2021/01/31 12:27:05;;;;;;;0.30;0.30;;;7.50;99.90;;;;;;6129579;23;20219;-89
2021/01/31 12:29:36;;;;;;;0.93;0.83;;;7.40;99.90;;;;;;6128511;23;20182;-89
2021/01/31 12:32:07;;;;;;;0.67;0.30;;;7.40;99.90;;;;;;6127313;23;20170;-88
2021/01/31 12:34:38;;;;;;;0.40;0.40;;;7.40;99.90;;;;;;6129752;23;20276;-89
2021/01/31 12:37:09;;;;;;;0.87;0.40;;;7.40;99.90;;;;;;6129974;23;20178;-89
2021/01/31 12:39:42;;;;;;;1.03;0.43;;;7.30;99.90;;;;;;6129600;23;20558;-89
2021/01/31 12:42:13;;;;;;;0.50;0.50;;;7.30;99.90;;;;;;6104586;23;20174;-89
2021/01/31 12:44:45;;;;;;;0.50;0.50;;;7.30;99.90;;;;;;6130297;23;20241;-88
2021/01/31 12:47:16;;;;;;;0.67;0.40;;;7.30;99.90;;;;;;6130253;23;20273;-88
2021/01/31 12:49:47;;;;;;;0.30;0.30;;;7.30;99.90;;;;;;6130506;23;20177;-89
2021/01/31 12:52:18;;;;;;;0.50;0.50;;;7.30;99.90;;;;;;6129498;23;20265;-87
2021/01/31 12:54:50;;;;;;;0.80;0.47;;;7.30;99.90;;;;;;6130911;23;20262;-89
2021/01/31 12:57:21;;;;;;;0.40;0.40;;;7.30;99.90;;;;;;6130263;23;20465;-89
2021/01/31 12:59:54;;;;;;;0.70;0.50;;;7.30;99.90;;;;;;6129406;23;20197;-88
2021/01/31 13:02:25;;;;;;;0.50;0.40;;;7.30;99.90;;;;;;6105145;23;20214;-87
2021/01/31 13:04:56;;;;;;;0.33;0.33;;;7.30;99.90;;;;;;6129878;23;20694;-87
2021/01/31 13:07:27;;;;;;;1.37;0.53;;;7.30;99.90;;;;;;6130319;23;20169;-88
2021/01/31 13:10:00;;;;;;;0.83;0.50;;;7.30;99.90;;;;;;6129944;23;20181;-89
2021/01/31 13:12:31;;;;;;;0.67;0.50;;;7.30;99.90;;;;;;6131064;23;20174;-89
2021/01/31 13:15:01;;;;;;;0.87;0.40;;;7.30;99.90;;;;;;6146630;23;20232;-89
2021/01/31 13:17:50;;;;;;;0.40;0.30;;;7.30;99.90;;;;;;6151902;23;20161;-88
2021/01/31 13:20:22;;;;;;;0.50;0.40;;;7.30;99.90;;;;;;6144190;23;20185;-87
2021/01/31 13:22:53;;;;;;;0.80;0.40;;;7.30;99.90;;;;;;6131980;23;20556;-86
2021/01/31 13:25:26;;;;;;;1.23;0.30;;;7.30;99.90;;;;;;6132018;23;20197;-88
2021/01/31 13:28:00;;;;;;;0.90;0.70;;;7.30;99.90;;;;;;6130078;23;20236;-88
2021/01/31 13:30:31;;;;;;;0.37;0.30;;;7.30;99.90;;;;;;6129067;23;20174;-88
2021/01/31 13:33:02;;;;;;;0.50;0.40;;;7.30;99.90;;;;;;6130468;23;20205;-88
2021/01/31 13:35:33;;;;;;;0.33;0.23;;;7.30;99.90;;;;;;6129515;23;20228;-89
2021/01/31 13:38:04;;;;;;;0.77;0.40;;;7.30;99.90;;;;;;6129207;23;20181;-89
2021/01/31 13:40:48;;;;;;;0.70;0.40;;;7.20;99.90;;;;;;6128228;23;20169;-89
2021/01/31 13:43:19;;;;;;;0.40;0.40;;;7.20;99.90;;;;;;6129486;23;20193;-88
2021/01/31 13:45:50;;;;;;;1.00;0.40;;;7.30;99.90;;;;;;6129422;23;20216;-88
2021/01/31 13:48:21;;;;;;;0.40;0.40;;;7.30;99.90;;;;;;6129576;23;20173;-88
2021/01/31 13:50:52;;;;;;;0.40;0.30;;;7.20;99.90;;;;;;6128102;23;20171;-88
2021/01/31 13:53:23;;;;;;;0.40;0.40;;;7.30;99.90;;;;;;6129641;23;20171;-88
2021/01/31 13:55:56;;;;;;;0.77;0.53;;;7.30;99.90;;;;;;6128935;23;20245;-88
2021/01/31 13:58:27;;;;;;;0.50;0.50;;;7.20;99.90;;;;;;6128822;23;20174;-87
2021/01/31 14:00:58;;;;;;;0.70;0.50;;;7.30;99.90;;;;;;6128070;23;20178;-88
2021/01/31 14:03:29;;;;;;;0.30;0.30;;;7.20;99.90;;;;;;6129168;23;20532;-88
2021/01/31 14:06:00;;;;;;;0.30;0.30;;;7.20;99.90;;;;;;6129267;23;20216;-88
2021/01/31 14:08:31;;;;;;;1.13;0.40;;;7.20;99.90;;;;;;6128661;23;20171;-88